createdAt,value
2018-03-21T00:00:08.037Z,36.50
2018-03-21T00:00:39.797Z,36.50
2018-03-21T00:01:11.585Z,36.60
2018-03-21T00:01:43.327Z,36.70
2018-03-21T00:02:16.244Z,36.90
2018-03-21T00:02:47.987Z,36.70
2018-03-21T00:03:19.740Z,36.70
2018-03-21T00:03:51.520Z,36.70
2018-03-21T00:04:24.032Z,36.70
2018-03-21T00:04:55.780Z,36.70
2018-03-21T00:05:27.531Z,36.70
2018-03-21T00:05:59.468Z,36.70
2018-03-21T00:06:31.227Z,36.60
2018-03-21T00:07:03.005Z,36.50
2018-03-21T00:07:34.930Z,36.60
2018-03-21T00:08:06.677Z,36.70
2018-03-21T00:08:38.482Z,36.60
2018-03-21T00:09:10.974Z,36.60
2018-03-21T00:09:42.722Z,36.60
2018-03-21T00:10:15.991Z,36.60
2018-03-21T00:10:47.745Z,36.60
2018-03-21T00:11:19.504Z,36.50
2018-03-21T00:11:51.249Z,36.50
2018-03-21T00:12:23.025Z,36.60
2018-03-21T00:12:54.780Z,36.60
2018-03-21T00:13:26.533Z,36.70
2018-03-21T00:13:58.293Z,36.70
2018-03-21T00:14:30.020Z,36.60
2018-03-21T00:15:01.769Z,36.70
2018-03-21T00:15:33.544Z,36.60
2018-03-21T00:16:05.295Z,36.80
2018-03-21T00:16:37.054Z,36.70
2018-03-21T00:17:08.799Z,36.80
2018-03-21T00:17:40.552Z,36.80
2018-03-21T00:18:13.063Z,36.90
2018-03-21T00:18:44.835Z,36.80
2018-03-21T00:19:16.553Z,36.70
2018-03-21T00:19:48.299Z,36.80
2018-03-21T00:20:20.034Z,36.80
2018-03-21T00:20:51.777Z,36.90
2018-03-21T00:21:23.516Z,36.80
2018-03-21T00:21:55.265Z,36.80
2018-03-21T00:22:27.015Z,36.70
2018-03-21T00:22:58.770Z,36.70
2018-03-21T00:23:30.620Z,36.70
2018-03-21T00:24:02.377Z,36.70
2018-03-21T00:24:34.170Z,36.70
2018-03-21T00:25:06.077Z,36.70
2018-03-21T00:25:37.808Z,36.70
2018-03-21T00:26:09.617Z,36.70
2018-03-21T00:26:41.443Z,36.60
2018-03-21T00:27:13.976Z,36.70
2018-03-21T00:27:45.729Z,36.70
2018-03-21T00:28:17.691Z,36.60
2018-03-21T00:28:49.437Z,36.60
2018-03-21T00:29:21.954Z,36.70
2018-03-21T00:29:53.836Z,36.50
2018-03-21T00:30:25.737Z,36.70
2018-03-21T00:30:58.222Z,36.60
2018-03-21T00:31:29.978Z,36.60
2018-03-21T00:32:01.741Z,36.60
2018-03-21T00:32:33.759Z,36.60
2018-03-21T00:33:05.497Z,36.60
2018-03-21T00:33:37.258Z,36.50
2018-03-21T00:34:08.994Z,36.60
2018-03-21T00:34:40.740Z,36.60
2018-03-21T00:35:12.684Z,36.70
2018-03-21T00:35:44.454Z,36.70
2018-03-21T00:36:16.209Z,36.60
2018-03-21T00:36:47.964Z,36.60
2018-03-21T00:37:20.469Z,36.60
2018-03-21T00:37:52.206Z,36.60
2018-03-21T00:38:24.009Z,36.60
2018-03-21T00:38:55.795Z,36.60
2018-03-21T00:39:27.534Z,36.60
2018-03-21T00:39:59.270Z,36.50
2018-03-21T00:40:31.023Z,36.60
2018-03-21T00:41:02.760Z,36.60
2018-03-21T00:41:34.505Z,36.60
2018-03-21T00:42:06.269Z,36.60
2018-03-21T00:42:38.024Z,36.60
2018-03-21T00:43:09.777Z,36.50
2018-03-21T00:43:41.524Z,36.60
2018-03-21T00:44:13.258Z,36.50
2018-03-21T00:44:45.009Z,36.50
2018-03-21T00:45:16.781Z,36.60
2018-03-21T00:45:48.535Z,36.60
2018-03-21T00:46:21.040Z,36.70
2018-03-21T00:46:52.790Z,36.60
2018-03-21T00:47:24.587Z,36.60
2018-03-21T00:47:56.475Z,36.50
2018-03-21T00:48:28.298Z,36.60
2018-03-21T00:49:00.796Z,36.60
2018-03-21T00:49:32.604Z,36.50
2018-03-21T00:50:05.299Z,36.50
2018-03-21T00:50:37.059Z,36.50
2018-03-21T00:51:09.012Z,36.50
2018-03-21T00:51:40.756Z,36.50
2018-03-21T00:52:12.498Z,36.50
2018-03-21T00:52:44.243Z,36.50
2018-03-21T00:53:16.001Z,36.70
2018-03-21T00:53:47.774Z,36.50
2018-03-21T00:54:20.291Z,36.50
2018-03-21T00:54:52.243Z,36.40
2018-03-21T00:55:24.004Z,36.50
2018-03-21T00:55:55.967Z,36.40
2018-03-21T00:56:27.758Z,36.30
2018-03-21T00:56:59.509Z,36.40
2018-03-21T00:57:31.245Z,36.50
2018-03-21T00:58:02.979Z,36.40
2018-03-21T00:58:34.737Z,36.40
2018-03-21T00:59:06.479Z,36.50
2018-03-21T00:59:38.222Z,36.40
2018-03-21T01:00:09.967Z,36.50
2018-03-21T01:00:41.714Z,36.50
2018-03-21T01:01:13.464Z,36.50
2018-03-21T01:01:45.215Z,36.50
2018-03-21T01:02:16.965Z,36.50
2018-03-21T01:02:48.919Z,36.60
2018-03-21T01:03:20.702Z,36.50
2018-03-21T01:03:52.544Z,36.60
2018-03-21T01:04:24.297Z,36.50
2018-03-21T01:04:56.798Z,36.10
2018-03-21T01:05:28.543Z,36.50
2018-03-21T01:06:00.298Z,36.70
2018-03-21T01:06:32.043Z,36.60
2018-03-21T01:07:03.796Z,36.60
2018-03-21T01:07:35.546Z,36.60
2018-03-21T01:08:07.288Z,36.60
2018-03-21T01:08:39.033Z,36.70
2018-03-21T01:09:10.807Z,36.80
2018-03-21T01:09:42.552Z,36.70
2018-03-21T01:10:14.295Z,36.80
2018-03-21T01:10:46.044Z,36.80
2018-03-21T01:11:18.558Z,36.90
2018-03-21T01:11:50.299Z,36.80
2018-03-21T01:12:22.046Z,36.80
2018-03-21T01:12:53.785Z,36.80
2018-03-21T01:13:25.582Z,36.70
2018-03-21T01:13:57.536Z,36.80
2018-03-21T01:14:30.046Z,36.90
2018-03-21T01:15:01.786Z,36.80
2018-03-21T01:15:33.523Z,36.80
2018-03-21T01:16:05.280Z,36.80
2018-03-21T01:16:37.040Z,36.80
2018-03-21T01:17:08.781Z,36.90
2018-03-21T01:17:40.524Z,36.90
2018-03-21T01:18:12.293Z,37.00
2018-03-21T01:18:44.035Z,36.90
2018-03-21T01:19:15.794Z,36.90
2018-03-21T01:19:47.546Z,36.90
2018-03-21T01:20:19.292Z,37.00
2018-03-21T01:20:51.252Z,37.00
2018-03-21T01:21:23.759Z,37.00
2018-03-21T01:21:55.551Z,37.00
2018-03-21T01:22:28.062Z,37.00
2018-03-21T01:22:59.815Z,37.00
2018-03-21T01:23:31.592Z,37.00
2018-03-21T01:24:04.105Z,36.90
2018-03-21T01:24:36.050Z,36.90
2018-03-21T01:25:08.533Z,36.90
2018-03-21T01:25:40.280Z,36.80
2018-03-21T01:26:12.034Z,36.70
2018-03-21T01:26:43.805Z,36.90
2018-03-21T01:27:15.548Z,37.20
2018-03-21T01:27:48.120Z,37.00
2018-03-21T01:28:20.631Z,37.00
2018-03-21T01:28:52.372Z,37.00
2018-03-21T01:29:24.123Z,37.20
2018-03-21T01:29:55.874Z,37.10
2018-03-21T01:30:27.608Z,37.00
2018-03-21T01:30:59.397Z,37.00
2018-03-21T01:31:31.150Z,37.00
2018-03-21T01:32:02.881Z,37.10
2018-03-21T01:32:34.651Z,37.00
2018-03-21T01:33:06.384Z,37.50
2018-03-21T01:33:38.901Z,37.00
2018-03-21T01:34:10.653Z,37.00
2018-03-21T01:34:42.406Z,36.90
2018-03-21T01:35:14.158Z,37.00
2018-03-21T01:35:45.910Z,37.00
2018-03-21T01:36:17.644Z,36.90
2018-03-21T01:36:49.397Z,36.90
2018-03-21T01:37:21.142Z,36.90
2018-03-21T01:37:53.229Z,36.90
2018-03-21T01:38:25.023Z,36.90
2018-03-21T01:38:56.784Z,36.90
2018-03-21T01:39:28.539Z,36.80
2018-03-21T01:40:01.048Z,36.90
2018-03-21T01:40:32.813Z,36.90
2018-03-21T01:41:04.553Z,37.00
2018-03-21T01:41:36.304Z,36.90
2018-03-21T01:42:08.112Z,37.00
2018-03-21T01:42:39.848Z,37.10
2018-03-21T01:43:11.623Z,37.10
2018-03-21T01:43:43.374Z,37.10
2018-03-21T01:44:15.155Z,37.00
2018-03-21T01:44:47.088Z,37.00
2018-03-21T01:45:20.376Z,37.00
2018-03-21T01:45:52.244Z,36.90
2018-03-21T01:46:24.759Z,37.00
2018-03-21T01:46:56.510Z,37.00
2018-03-21T01:47:28.277Z,36.90
2018-03-21T01:48:00.030Z,36.90
2018-03-21T01:48:31.765Z,36.90
2018-03-21T01:49:05.027Z,36.90
2018-03-21T01:49:36.976Z,36.90
2018-03-21T01:50:08.723Z,37.00
2018-03-21T01:50:40.483Z,37.00
2018-03-21T01:51:12.236Z,37.00
2018-03-21T01:51:43.997Z,37.00
2018-03-21T01:52:16.513Z,37.10
2018-03-21T01:52:48.265Z,37.00
2018-03-21T01:53:20.036Z,37.10
2018-03-21T01:53:51.778Z,37.00
2018-03-21T01:54:23.522Z,37.30
2018-03-21T01:54:55.252Z,37.10
2018-03-21T01:55:27.005Z,37.40
2018-03-21T01:55:58.780Z,37.40
2018-03-21T01:56:30.747Z,37.20
2018-03-21T01:57:02.628Z,37.40
2018-03-21T01:57:34.373Z,37.30
2018-03-21T01:58:06.117Z,37.20
2018-03-21T01:58:37.868Z,37.10
2018-03-21T01:59:09.607Z,37.20
2018-03-21T01:59:41.348Z,37.10
2018-03-21T02:00:13.127Z,37.10
2018-03-21T02:00:45.728Z,37.30
2018-03-21T02:01:17.468Z,37.90
2018-03-21T02:01:49.219Z,37.30
2018-03-21T02:02:20.967Z,37.40
2018-03-21T02:02:52.718Z,37.30
2018-03-21T02:03:24.475Z,37.30
2018-03-21T02:03:56.228Z,37.30
2018-03-21T02:04:27.981Z,37.40
2018-03-21T02:04:59.726Z,38.00
2018-03-21T02:05:31.478Z,37.40
2018-03-21T02:06:03.235Z,37.40
2018-03-21T02:06:34.969Z,37.30
2018-03-21T02:07:06.719Z,37.30
2018-03-21T02:07:38.469Z,37.20
2018-03-21T02:08:10.982Z,37.40
2018-03-21T02:08:42.724Z,37.20
2018-03-21T02:09:14.467Z,37.30
2018-03-21T02:09:46.417Z,37.30
2018-03-21T02:10:18.182Z,37.20
2018-03-21T02:10:49.925Z,37.20
2018-03-21T02:11:21.674Z,37.20
2018-03-21T02:11:53.419Z,37.20
2018-03-21T02:12:25.156Z,37.00
2018-03-21T02:12:56.915Z,37.10
2018-03-21T02:13:28.657Z,37.20
2018-03-21T02:14:00.420Z,37.20
2018-03-21T02:14:32.169Z,37.10
2018-03-21T02:15:03.891Z,37.10
2018-03-21T02:15:35.656Z,37.20
2018-03-21T02:16:07.388Z,37.10
2018-03-21T02:16:39.132Z,37.10
2018-03-21T02:17:10.901Z,37.00
2018-03-21T02:17:43.410Z,37.10
2018-03-21T02:18:15.173Z,37.10
2018-03-21T02:18:46.908Z,37.10
2018-03-21T02:19:18.682Z,37.20
2018-03-21T02:19:50.424Z,37.10
2018-03-21T02:20:22.173Z,37.00
2018-03-21T02:20:54.674Z,36.90
2018-03-21T02:21:26.523Z,36.90
2018-03-21T02:21:58.254Z,36.90
2018-03-21T02:22:29.996Z,36.80
2018-03-21T02:23:01.738Z,37.10
2018-03-21T02:23:33.506Z,37.10
2018-03-21T02:24:05.292Z,37.00
2018-03-21T02:24:37.009Z,37.00
2018-03-21T02:25:08.780Z,37.00
2018-03-21T02:25:40.517Z,37.00
2018-03-21T02:26:12.266Z,37.10
2018-03-21T02:26:44.257Z,37.10
2018-03-21T02:27:16.001Z,37.00
2018-03-21T02:27:47.762Z,37.00
2018-03-21T02:28:19.515Z,36.80
2018-03-21T02:28:51.281Z,36.70
2018-03-21T02:29:23.266Z,37.00
2018-03-21T02:29:55.022Z,36.90
2018-03-21T02:30:27.780Z,36.90
2018-03-21T02:30:59.498Z,36.90
2018-03-21T02:31:31.243Z,37.00
2018-03-21T02:32:03.018Z,37.10
2018-03-21T02:32:34.753Z,37.20
2018-03-21T02:33:06.524Z,37.10
2018-03-21T02:33:38.265Z,37.00
2018-03-21T02:34:10.005Z,37.00
2018-03-21T02:34:41.970Z,37.00
2018-03-21T02:35:14.828Z,37.10
2018-03-21T02:35:46.699Z,37.10
2018-03-21T02:36:18.548Z,37.00
2018-03-21T02:36:50.717Z,37.00
2018-03-21T02:37:22.520Z,36.90
2018-03-21T02:37:55.076Z,37.00
2018-03-21T02:38:26.983Z,37.00
2018-03-21T02:38:58.734Z,37.10
2018-03-21T02:39:30.484Z,37.10
2018-03-21T02:40:02.394Z,37.20
2018-03-21T02:40:34.909Z,37.10
2018-03-21T02:41:06.739Z,37.10
2018-03-21T02:41:38.527Z,37.10
2018-03-21T02:42:10.256Z,37.10
2018-03-21T02:42:42.152Z,37.20
2018-03-21T02:43:14.208Z,37.40
2018-03-21T02:43:46.778Z,37.40
2018-03-21T02:44:19.357Z,37.40
2018-03-21T02:44:52.100Z,37.20
2018-03-21T02:45:24.668Z,37.30
2018-03-21T02:45:57.248Z,37.30
2018-03-21T02:46:29.057Z,37.30
2018-03-21T02:47:00.815Z,37.30
2018-03-21T02:47:33.368Z,37.20
2018-03-21T02:48:05.137Z,37.20
2018-03-21T02:48:37.655Z,37.20
2018-03-21T02:49:09.423Z,37.20
2018-03-21T02:49:41.169Z,37.30
2018-03-21T02:50:12.924Z,37.30
2018-03-21T02:50:45.446Z,38.00
2018-03-21T02:51:17.229Z,37.40
2018-03-21T02:51:49.770Z,37.20
2018-03-21T02:52:21.711Z,37.20
2018-03-21T02:52:53.448Z,37.10
2018-03-21T02:53:25.204Z,37.20
2018-03-21T02:53:56.945Z,37.20
2018-03-21T02:54:28.793Z,37.10
2018-03-21T02:55:00.579Z,37.10
2018-03-21T02:55:33.948Z,37.40
2018-03-21T02:56:05.747Z,37.30
2018-03-21T02:56:37.622Z,37.40
2018-03-21T02:57:09.544Z,37.30
2018-03-21T02:57:41.375Z,37.30
2018-03-21T02:58:14.097Z,37.40
2018-03-21T02:58:45.839Z,37.30
2018-03-21T02:59:18.399Z,37.50
2018-03-21T02:59:50.473Z,37.50
2018-03-21T03:00:23.177Z,37.40
2018-03-21T03:00:54.987Z,37.40
2018-03-21T03:01:26.748Z,37.30
2018-03-21T03:01:59.626Z,37.40
2018-03-21T03:02:31.483Z,37.40
2018-03-21T03:03:03.320Z,37.70
2018-03-21T03:03:35.166Z,37.60
2018-03-21T03:04:07.692Z,37.60
2018-03-21T03:04:39.508Z,37.60
2018-03-21T03:05:11.283Z,37.80
2018-03-21T03:05:43.796Z,37.60
2018-03-21T03:06:15.545Z,37.50
2018-03-21T03:06:47.348Z,37.50
2018-03-21T03:07:19.855Z,37.60
2018-03-21T03:07:51.684Z,37.60
2018-03-21T03:08:23.432Z,37.60
2018-03-21T03:08:55.224Z,37.60
2018-03-21T03:09:26.993Z,37.50
2018-03-21T03:09:59.700Z,37.50
2018-03-21T03:10:31.438Z,37.50
2018-03-21T03:11:03.247Z,37.50
2018-03-21T03:11:35.763Z,37.40
2018-03-21T03:12:07.551Z,37.40
2018-03-21T03:12:40.118Z,37.50
2018-03-21T03:13:12.632Z,37.50
2018-03-21T03:13:44.371Z,37.50
2018-03-21T03:14:16.116Z,37.60
2018-03-21T03:14:47.918Z,37.60
2018-03-21T03:15:20.484Z,37.50
2018-03-21T03:15:53.145Z,37.60
2018-03-21T03:16:25.643Z,37.70
2018-03-21T03:16:57.459Z,37.70
2018-03-21T03:17:29.957Z,37.70
2018-03-21T03:18:01.707Z,37.60
2018-03-21T03:18:33.504Z,37.60
2018-03-21T03:19:06.037Z,37.60
2018-03-21T03:19:37.764Z,37.60
2018-03-21T03:20:09.803Z,37.60
2018-03-21T03:20:41.544Z,37.50
2018-03-21T03:21:13.515Z,37.50
2018-03-21T03:21:45.621Z,37.60
2018-03-21T03:22:17.514Z,37.80
2018-03-21T03:22:49.421Z,37.60
2018-03-21T03:23:21.841Z,37.50
2018-03-21T03:23:54.673Z,37.70
2018-03-21T03:24:26.524Z,37.50
2018-03-21T03:24:58.457Z,37.50
2018-03-21T03:25:30.949Z,37.50
2018-03-21T03:26:02.719Z,37.50
2018-03-21T03:26:34.462Z,37.50
2018-03-21T03:27:06.209Z,37.60
2018-03-21T03:27:37.947Z,37.50
2018-03-21T03:28:09.690Z,37.20
2018-03-21T03:28:41.427Z,37.50
2018-03-21T03:29:13.275Z,37.40
2018-03-21T03:29:45.009Z,37.40
2018-03-21T03:30:16.806Z,37.50
2018-03-21T03:30:49.371Z,37.50
2018-03-21T03:31:22.155Z,37.40
2018-03-21T03:31:53.887Z,37.40
2018-03-21T03:32:25.643Z,37.40
2018-03-21T03:32:57.412Z,37.50
2018-03-21T03:33:29.164Z,37.50
2018-03-21T03:34:00.915Z,37.50
2018-03-21T03:34:32.645Z,37.50
2018-03-21T03:35:04.416Z,37.50
2018-03-21T03:35:36.173Z,37.40
2018-03-21T03:36:07.919Z,37.40
2018-03-21T03:36:40.520Z,37.50
2018-03-21T03:37:12.309Z,37.60
2018-03-21T03:37:44.045Z,37.50
2018-03-21T03:38:16.075Z,37.50
2018-03-21T03:38:47.779Z,37.60
2018-03-21T03:39:20.363Z,37.40
2018-03-21T03:39:52.164Z,37.40
2018-03-21T03:40:23.966Z,37.70
2018-03-21T03:40:55.804Z,37.50
2018-03-21T03:41:27.549Z,37.40
2018-03-21T03:41:59.301Z,37.40
2018-03-21T03:42:31.885Z,37.50
2018-03-21T03:43:03.632Z,37.30
2018-03-21T03:43:35.451Z,37.30
2018-03-21T03:44:07.992Z,37.40
2018-03-21T03:44:40.532Z,37.40
2018-03-21T03:45:13.045Z,37.30
2018-03-21T03:45:44.783Z,37.30
2018-03-21T03:46:16.663Z,37.40
2018-03-21T03:46:48.411Z,37.40
2018-03-21T03:47:20.144Z,37.30
2018-03-21T03:47:51.893Z,37.20
2018-03-21T03:48:23.638Z,37.30
2018-03-21T03:48:55.376Z,37.30
2018-03-21T03:49:27.178Z,37.20
2018-03-21T03:49:59.738Z,37.20
2018-03-21T03:50:31.468Z,37.30
2018-03-21T03:51:03.984Z,37.20
2018-03-21T03:51:35.726Z,37.20
2018-03-21T03:52:07.489Z,37.30
2018-03-21T03:52:39.240Z,37.30
2018-03-21T03:53:10.988Z,37.20
2018-03-21T03:53:44.247Z,37.30
2018-03-21T03:54:16.020Z,37.30
2018-03-21T03:54:47.760Z,37.50
2018-03-21T03:55:19.504Z,37.20
2018-03-21T03:55:51.256Z,37.10
2018-03-21T03:56:23.806Z,37.10
2018-03-21T03:56:55.557Z,37.00
2018-03-21T03:57:27.299Z,37.10
2018-03-21T03:57:59.043Z,37.10
2018-03-21T03:58:30.792Z,37.20
2018-03-21T03:59:02.546Z,37.30
2018-03-21T03:59:35.048Z,38.10
2018-03-21T04:00:06.828Z,37.90
2018-03-21T04:00:38.580Z,37.30
2018-03-21T04:01:10.324Z,37.30
2018-03-21T04:01:42.105Z,37.20
2018-03-21T04:02:13.856Z,37.20
2018-03-21T04:02:45.597Z,37.20
2018-03-21T04:03:17.413Z,37.10
2018-03-21T04:03:49.147Z,37.00
2018-03-21T04:04:21.656Z,37.00
2018-03-21T04:04:53.429Z,37.00
2018-03-21T04:05:25.192Z,37.00
2018-03-21T04:05:57.721Z,37.00
2018-03-21T04:06:29.464Z,37.10
2018-03-21T04:07:01.204Z,37.00
2018-03-21T04:07:32.953Z,37.10
2018-03-21T04:08:04.702Z,37.20
2018-03-21T04:08:36.438Z,37.20
2018-03-21T04:09:08.183Z,37.40
2018-03-21T04:09:39.935Z,37.30
2018-03-21T04:10:11.757Z,37.20
2018-03-21T04:10:43.501Z,37.30
2018-03-21T04:11:15.260Z,37.10
2018-03-21T04:11:47.007Z,37.10
2018-03-21T04:12:18.747Z,37.10
2018-03-21T04:12:50.511Z,37.00
2018-03-21T04:13:22.297Z,37.00
2018-03-21T04:13:54.807Z,37.20
2018-03-21T04:14:26.547Z,37.10
2018-03-21T04:14:58.312Z,37.20
2018-03-21T04:15:30.058Z,37.60
2018-03-21T04:16:01.797Z,37.00
2018-03-21T04:16:33.552Z,37.00
2018-03-21T04:17:05.312Z,37.20
2018-03-21T04:17:37.091Z,37.40
2018-03-21T04:18:08.844Z,37.20
2018-03-21T04:18:40.592Z,37.20
2018-03-21T04:19:12.361Z,37.10
2018-03-21T04:19:44.116Z,37.30
2018-03-21T04:20:15.855Z,37.30
2018-03-21T04:20:47.603Z,37.20
2018-03-21T04:21:19.344Z,37.10
2018-03-21T04:21:51.157Z,37.00
2018-03-21T04:22:22.900Z,37.00
2018-03-21T04:22:54.645Z,36.90
2018-03-21T04:23:26.389Z,37.20
2018-03-21T04:23:58.124Z,37.20
2018-03-21T04:24:29.910Z,37.00
2018-03-21T04:25:01.848Z,37.00
2018-03-21T04:25:33.597Z,36.90
2018-03-21T04:26:05.353Z,36.90
2018-03-21T04:26:37.117Z,37.00
2018-03-21T04:27:08.851Z,37.00
2018-03-21T04:27:40.608Z,37.10
2018-03-21T04:28:12.610Z,37.10
2018-03-21T04:28:44.355Z,37.00
2018-03-21T04:29:16.121Z,37.00
2018-03-21T04:29:47.864Z,37.10
2018-03-21T04:30:19.613Z,37.20
2018-03-21T04:30:51.366Z,37.20
2018-03-21T04:31:23.096Z,37.20
2018-03-21T04:31:54.856Z,37.00
2018-03-21T04:32:27.397Z,37.70
2018-03-21T04:32:59.141Z,37.00
2018-03-21T04:33:30.883Z,37.00
2018-03-21T04:34:02.664Z,37.10
2018-03-21T04:34:34.409Z,37.00
2018-03-21T04:35:06.158Z,37.10
2018-03-21T04:35:37.930Z,37.00
2018-03-21T04:36:09.841Z,37.00
2018-03-21T04:36:41.582Z,37.00
2018-03-21T04:37:13.323Z,36.90
2018-03-21T04:37:45.065Z,36.90
2018-03-21T04:38:16.812Z,36.90
2018-03-21T04:38:48.557Z,37.00
2018-03-21T04:39:20.302Z,37.00
2018-03-21T04:39:52.060Z,37.00
2018-03-21T04:40:24.573Z,36.90
2018-03-21T04:40:56.324Z,36.90
2018-03-21T04:41:28.089Z,36.80
2018-03-21T04:41:59.836Z,36.80
2018-03-21T04:42:31.792Z,37.10
2018-03-21T04:43:03.532Z,37.10
2018-03-21T04:43:35.582Z,37.10
2018-03-21T04:44:07.324Z,36.90
2018-03-21T04:44:39.064Z,36.90
2018-03-21T04:45:10.805Z,36.80
2018-03-21T04:45:42.552Z,37.00
2018-03-21T04:46:14.491Z,36.90
2018-03-21T04:46:46.232Z,36.80
2018-03-21T04:47:17.985Z,37.00
2018-03-21T04:47:49.711Z,37.10
2018-03-21T04:48:21.449Z,37.10
2018-03-21T04:48:53.199Z,37.00
2018-03-21T04:49:24.940Z,36.80
2018-03-21T04:49:56.680Z,36.80
2018-03-21T04:50:28.428Z,36.90
2018-03-21T04:51:00.368Z,37.00
2018-03-21T04:51:32.117Z,36.90
2018-03-21T04:52:03.879Z,36.70
2018-03-21T04:52:35.621Z,36.80
2018-03-21T04:53:07.404Z,36.60
2018-03-21T04:53:39.174Z,36.70
2018-03-21T04:54:11.691Z,36.80
2018-03-21T04:54:43.433Z,36.70
2018-03-21T04:55:15.194Z,36.80
2018-03-21T04:55:46.941Z,36.70
2018-03-21T04:56:18.677Z,36.80
2018-03-21T04:56:50.437Z,37.00
2018-03-21T04:57:22.181Z,37.00
2018-03-21T04:57:53.921Z,37.00
2018-03-21T04:58:25.677Z,37.00
2018-03-21T04:58:57.416Z,36.80
2018-03-21T04:59:29.152Z,36.80
2018-03-21T05:00:01.067Z,36.90
2018-03-21T05:00:33.586Z,36.70
2018-03-21T05:01:06.090Z,37.50
2018-03-21T05:01:37.883Z,36.80
2018-03-21T05:02:09.636Z,36.90
2018-03-21T05:02:41.377Z,36.90
2018-03-21T05:03:13.136Z,36.60
2018-03-21T05:03:45.661Z,36.70
2018-03-21T05:04:17.447Z,36.70
2018-03-21T05:04:49.960Z,37.10
2018-03-21T05:05:21.707Z,37.00
2018-03-21T05:05:53.480Z,37.10
2018-03-21T05:06:25.436Z,37.60
2018-03-21T05:06:57.191Z,37.30
2018-03-21T05:07:28.944Z,37.30
2018-03-21T05:08:00.696Z,37.40
2018-03-21T05:08:32.645Z,37.40
2018-03-21T05:09:04.384Z,37.40
2018-03-21T05:09:36.128Z,37.50
2018-03-21T05:10:07.907Z,37.40
2018-03-21T05:10:40.420Z,37.40
2018-03-21T05:11:12.178Z,37.40
2018-03-21T05:11:43.912Z,37.40
2018-03-21T05:12:15.653Z,37.30
2018-03-21T05:12:47.431Z,37.30
2018-03-21T05:13:19.950Z,37.30
2018-03-21T05:13:51.701Z,37.30
2018-03-21T05:14:23.448Z,37.10
2018-03-21T05:14:55.197Z,37.00
2018-03-21T05:15:26.941Z,37.20
2018-03-21T05:15:58.721Z,37.20
2018-03-21T05:16:31.237Z,37.70
2018-03-21T05:17:03.004Z,37.10
2018-03-21T05:17:34.758Z,37.20
2018-03-21T05:18:06.547Z,37.10
2018-03-21T05:18:38.459Z,37.10
2018-03-21T05:19:10.193Z,37.00
2018-03-21T05:19:41.937Z,37.00
2018-03-21T05:20:13.691Z,37.10
2018-03-21T05:20:45.416Z,37.20
2018-03-21T05:21:17.157Z,37.10
2018-03-21T05:21:48.908Z,37.10
2018-03-21T05:22:20.656Z,37.00
2018-03-21T05:22:52.566Z,37.10
2018-03-21T05:23:25.048Z,36.80
2018-03-21T05:23:56.996Z,36.80
2018-03-21T05:24:28.776Z,37.00
2018-03-21T05:25:00.501Z,37.00
2018-03-21T05:25:32.252Z,37.10
2018-03-21T05:26:04.029Z,36.90
2018-03-21T05:26:35.753Z,37.00
2018-03-21T05:27:07.486Z,37.10
2018-03-21T05:27:39.221Z,37.20
2018-03-21T05:28:10.971Z,37.20
2018-03-21T05:28:42.718Z,37.10
2018-03-21T05:29:14.457Z,36.90
2018-03-21T05:29:46.214Z,37.00
2018-03-21T05:30:17.964Z,37.20
2018-03-21T05:30:50.505Z,37.50
2018-03-21T05:31:22.231Z,37.40
2018-03-21T05:31:53.976Z,37.20
2018-03-21T05:32:25.731Z,37.30
2018-03-21T05:32:57.498Z,37.10
2018-03-21T05:33:29.240Z,36.90
2018-03-21T05:34:00.988Z,36.90
2018-03-21T05:34:32.733Z,37.10
2018-03-21T05:35:04.481Z,37.70
2018-03-21T05:35:36.226Z,38.10
2018-03-21T05:36:07.968Z,37.30
2018-03-21T05:36:39.766Z,37.30
2018-03-21T05:37:11.492Z,37.40
2018-03-21T05:37:43.311Z,36.80
2018-03-21T05:38:15.839Z,37.30
2018-03-21T05:38:47.624Z,36.70
2018-03-21T05:39:20.151Z,36.50
2018-03-21T05:39:51.900Z,36.40
2018-03-21T05:40:23.644Z,36.50
2018-03-21T05:40:55.387Z,36.20
2018-03-21T05:41:27.156Z,36.20
2018-03-21T05:41:58.877Z,36.10
2018-03-21T05:42:30.627Z,36.40
2018-03-21T05:43:02.360Z,36.70
2018-03-21T05:43:34.115Z,36.50
2018-03-21T05:44:05.865Z,36.20
2018-03-21T05:44:37.688Z,35.80
2018-03-21T05:45:09.442Z,35.60
2018-03-21T05:45:41.188Z,35.50
2018-03-21T05:46:12.952Z,35.80
2018-03-21T05:46:44.701Z,35.80
2018-03-21T05:47:16.432Z,36.10
2018-03-21T05:47:48.168Z,35.50
2018-03-21T05:48:19.904Z,35.40
2018-03-21T05:48:51.648Z,35.40
2018-03-21T05:49:23.403Z,35.20
2018-03-21T05:49:55.177Z,35.20
2018-03-21T05:50:27.712Z,35.50
2018-03-21T05:50:59.478Z,35.50
2018-03-21T05:51:31.214Z,35.30
2018-03-21T05:52:02.955Z,35.30
2018-03-21T05:52:34.734Z,35.40
2018-03-21T05:53:07.240Z,35.10
2018-03-21T05:53:38.999Z,35.10
2018-03-21T05:54:10.764Z,35.00
2018-03-21T05:54:42.531Z,35.20
2018-03-21T05:55:14.301Z,35.10
2018-03-21T05:55:46.048Z,35.00
2018-03-21T05:56:17.813Z,35.00
2018-03-21T05:56:49.578Z,35.00
2018-03-21T05:57:21.578Z,35.10
2018-03-21T05:57:53.360Z,35.10
2018-03-21T05:58:25.472Z,35.00
2018-03-21T05:58:57.231Z,35.50
2018-03-21T05:59:28.998Z,35.50
2018-03-21T06:00:00.733Z,35.60
2018-03-21T06:00:32.493Z,35.50
2018-03-21T06:01:04.288Z,35.50
2018-03-21T06:01:36.034Z,35.50
2018-03-21T06:02:07.775Z,35.50
2018-03-21T06:02:39.548Z,35.60
2018-03-21T06:03:11.316Z,35.90
2018-03-21T06:03:43.072Z,35.80
2018-03-21T06:04:14.847Z,35.90
2018-03-21T06:04:46.793Z,35.80
2018-03-21T06:05:19.301Z,40.00
2018-03-21T06:05:51.060Z,40.10
2018-03-21T06:06:22.809Z,42.00
2018-03-21T06:06:54.556Z,41.50
2018-03-21T06:07:26.304Z,42.30
2018-03-21T06:07:58.061Z,41.70
2018-03-21T06:08:29.848Z,40.70
2018-03-21T06:09:01.586Z,39.80
2018-03-21T06:09:33.337Z,39.60
2018-03-21T06:10:05.090Z,39.10
2018-03-21T06:10:36.827Z,38.80
2018-03-21T06:11:08.570Z,38.40
2018-03-21T06:11:40.312Z,38.20
2018-03-21T06:12:12.040Z,38.10
2018-03-21T06:12:43.784Z,37.80
2018-03-21T06:13:15.529Z,37.70
2018-03-21T06:13:47.268Z,37.60
2018-03-21T06:14:19.020Z,40.90
2018-03-21T06:14:50.758Z,39.50
2018-03-21T06:15:22.500Z,38.80
2018-03-21T06:15:55.025Z,38.90
2018-03-21T06:16:26.768Z,38.90
2018-03-21T06:16:58.517Z,39.30
2018-03-21T06:17:30.279Z,39.80
2018-03-21T06:18:02.034Z,39.30
2018-03-21T06:18:33.971Z,39.50
2018-03-21T06:19:05.709Z,40.50
2018-03-21T06:19:38.220Z,42.30
2018-03-21T06:20:09.976Z,42.30
2018-03-21T06:20:41.727Z,43.90
2018-03-21T06:21:13.472Z,43.90
2018-03-21T06:21:45.225Z,45.30
2018-03-21T06:22:16.963Z,45.30
2018-03-21T06:22:48.708Z,45.90
2018-03-21T06:23:20.454Z,46.10
2018-03-21T06:23:52.207Z,45.90
2018-03-21T06:24:23.941Z,47.00
2018-03-21T06:24:55.695Z,47.70
2018-03-21T06:25:27.433Z,47.50
2018-03-21T06:25:59.185Z,46.50
2018-03-21T06:26:30.933Z,47.60
2018-03-21T06:27:03.450Z,47.50
2018-03-21T06:27:35.252Z,47.50
2018-03-21T06:28:06.992Z,47.00
2018-03-21T06:28:38.728Z,47.00
2018-03-21T06:29:10.459Z,47.10
2018-03-21T06:29:42.195Z,47.10
2018-03-21T06:30:13.936Z,46.90
2018-03-21T06:30:45.681Z,46.70
2018-03-21T06:31:17.448Z,47.10
2018-03-21T06:31:49.198Z,47.30
2018-03-21T06:32:20.938Z,47.90
2018-03-21T06:32:52.690Z,47.30
2018-03-21T06:33:24.556Z,47.20
2018-03-21T06:33:57.088Z,48.40
2018-03-21T06:34:28.833Z,48.40
2018-03-21T06:35:00.568Z,47.50
2018-03-21T06:35:32.316Z,45.00
2018-03-21T06:36:04.083Z,47.30
2018-03-21T06:36:35.882Z,47.00
2018-03-21T06:37:07.649Z,46.70
2018-03-21T06:37:39.408Z,46.40
2018-03-21T06:38:11.148Z,46.00
2018-03-21T06:38:42.905Z,45.90
2018-03-21T06:39:14.657Z,45.70
2018-03-21T06:39:46.398Z,45.50
2018-03-21T06:40:18.141Z,45.40
2018-03-21T06:40:49.888Z,45.60
2018-03-21T06:41:21.625Z,45.60
2018-03-21T06:41:53.379Z,45.60
2018-03-21T06:42:25.134Z,45.60
2018-03-21T06:42:56.868Z,45.10
2018-03-21T06:43:28.611Z,45.40
2018-03-21T06:44:00.361Z,45.50
2018-03-21T06:44:32.123Z,45.20
2018-03-21T06:45:04.643Z,45.40
2018-03-21T06:45:36.386Z,45.30
2018-03-21T06:46:08.187Z,45.10
2018-03-21T06:46:39.954Z,44.90
2018-03-21T06:47:11.724Z,45.70
2018-03-21T06:47:43.461Z,45.40
2018-03-21T06:48:15.242Z,45.80
2018-03-21T06:48:47.747Z,45.40
2018-03-21T06:49:19.509Z,45.20
2018-03-21T06:49:51.486Z,45.20
2018-03-21T06:50:23.229Z,45.40